• Join FlightAware (Why Join?)
  • Login
  • US Flag 
07:57PM EST


 

Airport Tracker/Info


-or-


 

Live Flight TrackerFlight Track Log ✈ CSN6288 ✈ 08-Jul-2013 ✈ ZBYN / TYN - ZHHH / WUH

Flight Track Log - Related Links

Times and Time Zones

All times are in EDT time to prevent confusion due to time zone crossing. See the CSN6288 flight status page for this flight to view local times or setup timezone preferences in your user account.

Time Position Orientation Groundspeed Altitude Reporting Facility
EDT Latitude Longitude Course Direction KTS MPH feet Rate Location/Type
11:55AM 37.6205 112.6597 169° South  Level Estimated
11:56AM 37.4941 112.6908 169° South  Level Estimated
11:57AM 37.3676 112.7218 169° South  Level Estimated
11:58AM 37.2412 112.7527 169° South  Level Estimated
11:59AM 37.1148 112.7835 169° South  Level Estimated
12:00PM 36.9883 112.8142 169° South  Level Estimated
12:01PM 36.8619 112.8448 169° South  Level Estimated
12:02PM 36.7354 112.8753 169° South  Level Estimated
12:03PM 36.6089 112.9057 169° South  Level Estimated
12:04PM 36.4824 112.9360 169° South  Level Estimated
12:05PM 36.3559 112.9662 169° South  Level Estimated
12:06PM 36.2294 112.9963 169° South  Level Estimated
12:07PM 36.1029 113.0264 169° South  Level Estimated
12:08PM 35.9764 113.0563 169° South  Level Estimated
12:09PM 35.8499 113.0861 169° South  Level Estimated
12:10PM 35.7234 113.1158 169° South  Level Estimated
12:11PM 35.5968 113.1454 169° South  Level Estimated
12:12PM 35.4703 113.1750 169° South  Level Estimated
12:13PM 35.3437 113.2044 169° South  Level Estimated
12:14PM 35.2172 113.2337 169° South  Level Estimated
12:15PM 35.0906 113.2630 169° South  Level Estimated
12:16PM 34.9640 113.2922 169° South  Level Estimated
12:17PM 34.8375 113.3213 169° South  Level Estimated
12:18PM 34.7109 113.3503 169° South  Level Estimated
12:19PM 34.5843 113.3792 169° South  Level Estimated
12:20PM 34.4577 113.4080 169° South  Level Estimated
12:21PM 34.3311 113.4367 169° South  Level Estimated
12:22PM 34.2045 113.4653 169° South  Level Estimated
12:23PM 34.0779 113.4939 169° South  Level Estimated
12:24PM 33.9512 113.5223 169° South  Level Estimated
12:25PM 33.8246 113.5507 169° South  Level Estimated
12:26PM 33.6980 113.5790 169° South  Level Estimated
12:27PM 33.5713 113.6072 169° South  Level Estimated
12:28PM 33.4447 113.6354 169° South  Level Estimated
12:29PM 33.3180 113.6634 170° South  Level Estimated
12:30PM 33.1913 113.6914 170° South  Level Estimated
12:31PM 33.0647 113.7193 170° South  Level Estimated
12:32PM 32.9380 113.7471 170° South  Level Estimated
12:33PM 32.8113 113.7748 170° South  Level Estimated
12:34PM 32.6846 113.8025 170° South  Level Estimated
12:35PM 32.5579 113.8300 170° South  Level Estimated
12:36PM 32.4312 113.8575 170° South  Level Estimated
12:37PM 32.3045 113.8849 170° South  Level Estimated
12:38PM 32.1778 113.9123 170° South  Level Estimated
12:39PM 32.0511 113.9396 170° South  Level Estimated
12:40PM 31.9244 113.9667 170° South  Level Estimated
12:41PM 31.7976 113.9939 170° South  Level Estimated
12:42PM 31.6709 114.0209 170° South  Level Estimated
12:43PM 31.5442 114.0479 170° South  Level Estimated
12:44PM 31.4174 114.0748 170° South  Level Estimated
12:45PM 31.2907 114.1016 170° South  Level Estimated
12:46PM 31.1639 114.1283 170° South  Level Estimated
12:47PM 31.0371 114.1550 170° South  Level Estimated
12:48PM 30.9104 114.1816 170° South  Level Estimated
12:49PM 30.7838 114.2081 170° South  Level Estimated
12:50PM 30.7838 114.2081 180° South  Level Estimated
12:51PM 30.7838 114.2081 180° South  Level Estimated
12:52PM 30.7838 114.2081 180° South  Level Estimated
12:53PM 30.7838 114.2081 180° South  Level Estimated
12:54PM 30.7838 114.2081 180° South  Level Estimated
12:55PM 30.7838 114.2081 180° South  Level Estimated
12:56PM 30.7838 114.2081 180° South  Level Estimated
12:57PM 30.7838 114.2081 180° South  Level Estimated
12:58PM 30.7838 114.2081 180° South  Level Estimated
12:59PM 30.7838 114.2081 180° South  Level Estimated